Latest Weather Observations for Cairns Racecourse

IDQ60801

Issued at 3:02 pm EST Tuesday 23 October 2018 (issued every 10 minutes, with the page automatically refreshed every 10 minutes)

About weather observations | Map of weather stations | Latest weather observations for QLD | Other Formats
Station Details ID: 031222 Name: CAIRNS RACECOURSE Lat: -16.95 Lon: 145.75 Height: 4.1 m
Data from the previous 72 hours. | See also: Recent months at Cairns Racecourse
Date/Time
EST
Temp
°C
App
Temp
°C
Dew
Point
°C
Rel
Hum
%
Delta-T
°C
Wind Press
QNH
hPa
Press
MSL
hPa
Rain since
9am
mm
Dir  Spd
km/h
Gust
km/h
Spd
kts
Gust
kts
23/03:00pm 28.9 30.6 20.9 62 5.3 N 13 22 7 12 - - 0.0
23/02:30pm 28.7 30.3 20.7 62 5.3 NNE 13 20 7 11 - - 0.0
23/02:00pm 30.3 32.2 21.4 59 6.0 NNE 13 20 7 11 - - 0.0
23/01:30pm 30.0 32.3 21.4 60 5.8 NNE 11 20 6 11 - - 0.0
23/01:00pm 29.5 31.1 21.4 61 5.4 NNE 15 26 8 14 - - 0.0
23/12:30pm 29.8 31.4 21.5 61 5.6 NNE 15 24 8 13 - - 0.0
23/12:00pm 29.9 32.2 22.1 63 5.3 NNE 13 24 7 13 - - 0.0
23/11:30am 29.0 31.1 21.7 64 4.9 NNE 13 20 7 11 - - 0.0
23/11:00am 29.9 32.4 21.8 62 5.5 NNE 11 19 6 10 - - 0.0
23/10:30am 29.5 31.4 19.8 56 6.4 ESE 9 17 5 9 - - 0.0
23/10:00am 30.1 31.9 21.2 59 6.0 E 13 17 7 9 - - 0.0
23/09:30am 29.8 32.2 20.9 59 5.9 SSE 9 13 5 7 - - 0.0
23/09:00am 28.7 31.3 22.0 67 4.5 SSE 11 17 6 9 - - 0.0
23/08:30am 27.3 29.5 21.1 69 4.1 S 11 13 6 7 - - 0.0
23/08:00am 26.5 29.3 21.5 74 3.3 SSE 9 13 5 7 - - 0.0
23/07:30am 25.3 28.0 21.4 79 2.6 SE 9 11 5 6 - - 0.0
23/07:00am 25.0 27.4 21.5 81 2.3 S 11 15 6 8 - - 0.0
23/06:30am 24.2 27.5 22.5 90 1.1 SE 9 13 5 7 - - 0.0
23/06:00am 22.8 27.2 21.4 92 0.9 CALM 0 0 0 0 - - 0.0
23/05:59am 22.7 27.1 21.3 92 0.9 CALM 0 0 0 0 - - 0.0
23/05:41am 22.6 26.7 20.7 89 1.2 CALM 0 0 0 0 - - 0.0
23/05:30am 22.9 26.9 20.6 87 1.5 CALM 0 0 0 0 - - 0.0
23/05:00am 23.9 28.3 21.4 86 1.6 CALM 0 0 0 0 - - 0.0
23/04:30am 24.3 28.4 21.6 85 1.8 SSE 2 7 1 4 - - 0.0
23/04:00am 24.0 27.3 21.5 86 1.7 SSE 6 9 3 5 - - 0.0
23/03:30am 24.2 27.3 21.5 85 1.8 SSE 7 9 4 5 - - 0.0
23/03:00am 24.2 27.3 21.5 85 1.8 S 7 9 4 5 - - 0.0
23/02:30am 24.4 29.2 22.1 87 1.5 CALM 0 0 0 0 - - 0.0
23/02:00am 24.9 29.7 22.2 85 1.8 CALM 0 0 0 0 - - 0.0
23/01:30am 24.9 29.0 22.2 85 1.8 ENE 4 7 2 4 - - 0.0
23/01:00am 25.0 29.7 21.9 83 2.1 CALM 0 0 0 0 - - 0.0
23/12:30am 24.9 29.5 21.8 83 2.1 CALM 0 0 0 0 - - 0.0
23/12:00am 24.8 29.3 21.5 82 2.2 CALM 0 0 0 0 - - 0.0
 
Date/Time
EST
Temp
°C
App
Temp
°C
Dew
Point
°C
Rel
Hum
%
Delta-T
°C
Wind Press
QNH
hPa
Press
MSL
hPa
Rain since
9am
mm
Dir  Spd
km/h
Gust
km/h
Spd
kts
Gust
kts
22/11:30pm 24.9 29.2 21.2 80 2.4 CALM 0 0 0 0 - - 0.0
22/11:00pm 25.2 29.4 20.9 77 2.8 CALM 0 0 0 0 - - 0.0
22/10:30pm 25.7 28.2 21.1 76 3.0 S 9 13 5 7 - - 0.0
22/10:00pm 25.4 29.4 20.6 75 3.1 CALM 0 0 0 0 - - 0.0
22/09:30pm 26.1 29.0 20.7 72 3.5 ENE 6 9 3 5 - - 0.0
22/09:00pm 26.0 29.8 21.0 74 3.3 N 2 7 1 4 - - 0.0
22/08:30pm 26.2 29.6 21.0 73 3.4 NNE 4 9 2 5 - - 0.0
22/08:00pm 26.3 29.2 21.1 73 3.4 N 7 11 4 6 - - 0.0
22/07:30pm 26.6 29.1 21.1 72 3.6 N 9 13 5 7 - - 0.0
22/07:00pm 26.6 29.1 21.1 72 3.6 N 9 15 5 8 - - 0.0
22/06:30pm 26.6 29.4 21.6 74 3.3 NNW 9 17 5 9 - - 0.0
22/06:00pm 26.8 29.8 21.3 72 3.7 N 7 13 4 7 - - 0.0
22/05:30pm 26.9 29.6 21.4 72 3.7 N 9 17 5 9 - - 0.0
22/05:00pm 27.8 30.2 21.6 69 4.1 N 11 20 6 11 - - 0.0
22/04:30pm 27.4 29.6 21.2 69 4.1 N 11 20 6 11 - - 0.0
22/04:00pm 28.3 29.8 20.6 63 5.1 NE 13 19 7 10 - - 0.0
22/03:30pm 28.7 30.4 20.2 60 5.6 NNE 11 22 6 12 - - 0.0
22/03:00pm 29.0 30.7 21.0 62 5.3 NNE 13 20 7 11 - - 0.0
22/02:30pm 29.4 30.8 20.3 58 6.0 NE 13 20 7 11 - - 0.0
22/02:00pm 29.9 31.1 20.7 57 6.1 NE 15 24 8 13 - - 0.0
22/01:30pm 30.3 31.4 20.5 55 6.5 NE 15 24 8 13 - - 0.0
22/01:00pm 30.1 31.3 20.6 56 6.3 NE 15 28 8 15 - - 0.0
22/12:30pm 30.7 31.9 20.6 54 6.7 NE 15 20 8 11 - - 0.0
22/12:00pm 30.1 31.4 20.1 55 6.6 NNE 13 22 7 12 - - 0.0
22/11:30am 29.6 30.4 19.9 56 6.4 NE 15 22 8 12 - - 0.0
22/11:00am 29.2 30.0 19.8 57 6.2 ENE 15 22 8 12 - - 0.0
22/10:30am 30.1 31.8 20.1 55 6.6 NNE 11 19 6 10 - - 0.0
22/10:00am 28.9 30.3 18.7 54 6.6 NNW 9 13 5 7 - - 0.0
22/09:30am 28.7 31.1 19.6 58 5.9 NNW 6 9 3 5 - - 0.0
22/09:00am 27.8 30.1 19.8 61 5.2 S 7 11 4 6 - - 0.0
22/08:30am 26.9 29.4 19.8 65 4.6 SE 6 11 3 6 - - 0.0
22/08:00am 26.3 29.1 20.4 70 3.9 SSE 6 9 3 5 - - 0.0
22/07:30am 24.3 27.5 20.4 79 2.5 ESE 4 7 2 4 - - 0.0
22/07:00am 23.3 27.1 20.1 82 2.1 CALM 0 0 0 0 - - 0.0
22/06:30am 22.3 25.0 20.2 88 1.4 SW 6 9 3 5 - - 0.0
22/06:00am 21.8 24.1 19.9 89 1.2 SSW 7 9 4 5 - - 0.0
22/05:30am 21.7 25.3 19.8 89 1.2 CALM 0 0 0 0 - - 0.0
22/05:00am 21.6 24.8 19.7 89 1.2 SE 2 7 1 4 - - 0.0
22/04:30am 21.5 24.9 19.4 88 1.3 CALM 0 0 0 0 - - 0.0
22/04:00am 21.4 24.9 19.5 89 1.2 CALM 0 0 0 0 - - 0.0
22/03:30am 21.0 24.2 18.9 88 1.3 CALM 0 0 0 0 - - 0.0
22/03:00am 21.0 24.2 18.8 87 1.4 CALM 0 0 0 0 - - 0.0
22/02:30am 20.8 23.8 18.4 86 1.5 CALM 0 0 0 0 - - 0.0
22/02:00am 21.6 23.4 18.2 81 2.1 SSE 6 9 3 5 - - 0.0
22/01:30am 21.7 23.8 19.3 86 1.5 S 7 11 4 6 - - 0.0
22/01:00am 22.1 24.7 20.0 88 1.3 SSE 6 7 3 4 - - 0.0
22/12:30am 22.1 25.4 20.0 88 1.3 S 2 9 1 5 - - 0.0
22/12:00am 22.7 26.7 20.6 88 1.4 CALM 0 0 0 0 - - 0.0
 
Date/Time
EST
Temp
°C
App
Temp
°C
Dew
Point
°C
Rel
Hum
%
Delta-T
°C
Wind Press
QNH
hPa
Press
MSL
hPa
Rain since
9am
mm
Dir  Spd
km/h
Gust
km/h
Spd
kts
Gust
kts
21/11:30pm 22.1 25.8 20.0 88 1.3 CALM 0 0 0 0 - - 0.0
21/11:00pm 22.6 26.4 20.1 86 1.6 CALM 0 0 0 0 - - 0.0
21/10:30pm 23.3 27.3 20.6 85 1.8 CALM 0 0 0 0 - - 0.0
21/10:00pm 23.1 26.9 20.2 84 1.9 CALM 0 0 0 0 - - 0.0
21/09:30pm 23.4 27.1 20.0 81 2.2 CALM 0 0 0 0 - - 0.0
21/09:00pm 24.0 26.6 20.1 79 2.5 S 6 9 3 5 - - 0.0
21/08:30pm 24.4 26.6 20.5 79 2.5 SSW 9 11 5 6 - - 0.0
21/08:00pm 24.1 26.5 20.0 78 2.6 SW 7 9 4 5 - - 0.0
21/07:30pm 24.7 27.2 20.2 76 2.9 WSW 7 11 4 6 - - 0.0
21/07:00pm 25.4 27.5 20.2 73 3.4 WNW 9 13 5 7 - - 0.0
21/06:30pm 25.9 28.5 20.5 72 3.5 NNW 7 13 4 7 - - 0.0
21/06:00pm 26.4 28.4 20.0 68 4.2 NNW 9 11 5 6 - - 0.0
21/05:30pm 27.3 29.7 20.1 64 4.7 NNW 7 13 4 7 - - 0.0
21/05:00pm 27.6 29.7 20.2 64 4.8 N 9 17 5 9 - - 0.0
21/04:30pm 28.4 30.0 20.7 63 5.1 NNE 13 20 7 11 - - 0.0
21/04:00pm 29.0 31.0 20.7 61 5.5 NNE 11 19 6 10 - - 0.0
21/03:30pm 28.9 30.2 20.1 59 5.8 NE 13 22 7 12 - - 0.0
21/03:00pm 29.7 31.2 20.5 57 6.1 NNE 13 24 7 13 - - 0.0
21/02:30pm 29.7 31.6 20.5 57 6.1 NNE 11 24 6 13 - - 0.0
21/02:00pm 29.3 30.3 20.2 58 6.0 NNE 15 30 8 16 - - 0.0
21/01:30pm 30.0 31.1 20.5 56 6.3 NNE 15 24 8 13 - - 0.0
21/01:00pm 30.0 31.6 20.8 57 6.1 NE 13 22 7 12 - - 0.0
21/12:30pm 29.9 31.0 20.5 57 6.2 NNE 15 22 8 12 - - 0.0
21/12:00pm 29.8 30.8 19.5 54 6.7 NNE 13 20 7 11 - - 0.0
21/11:30am 30.8 32.5 20.1 53 7.1 NE 11 20 6 11 - - 0.0
21/11:00am 30.0 31.2 19.1 52 7.1 NNE 11 19 6 10 - - 0.0
21/10:30am 30.5 32.2 18.6 49 7.7 ESE 7 13 4 7 - - 0.0
21/10:00am 29.7 31.4 18.5 51 7.2 E 7 13 4 7 - - 0.0
21/09:30am 28.9 30.8 18.9 54 6.5 ESE 7 13 4 7 - - 0.0
21/09:00am 27.7 29.5 18.4 57 5.9 ESE 6 9 3 5 - - 0.0
21/08:30am 27.3 29.4 19.4 62 5.1 SE 7 13 4 7 - - 0.0
21/08:00am 26.0 28.4 19.6 68 4.1 SE 6 11 3 6 - - 0.0
21/07:30am 24.6 26.9 19.9 75 3.0 SSE 7 9 4 5 - - 0.0
21/07:00am 23.2 25.2 20.0 82 2.1 SSE 9 11 5 6 - - 0.0
21/06:30am 21.9 24.4 20.2 90 1.1 SSE 7 9 4 5 - - 0.0
21/06:00am 20.3 22.5 19.5 95 0.5 SSW 7 9 4 5 - - 0.0
21/05:30am 19.8 22.7 18.3 91 0.9 CALM 0 0 0 0 - - 0.0
21/05:00am 20.3 23.3 18.4 89 1.2 CALM 0 0 0 0 - - 0.0
21/04:30am 21.3 24.4 19.6 90 1.1 SSW 2 7 1 4 - - 0.0
21/04:00am 21.5 24.0 19.1 86 1.5 SSE 4 7 2 4 - - 0.0
21/03:30am 22.3 24.6 19.8 86 1.6 SSE 7 9 4 5 - - 0.0
21/03:00am 22.4 24.9 19.8 85 1.7 SE 6 9 3 5 - - 0.0
21/02:30am 22.8 25.3 19.8 83 1.9 SE 6 7 3 4 - - 0.0
21/02:00am 23.4 25.9 20.2 82 2.1 SSE 7 9 4 5 - - 0.0
21/01:30am 23.5 26.3 20.4 83 2.0 SE 6 9 3 5 - - 0.0
21/01:00am 22.9 26.8 20.4 86 1.6 CALM 0 7 0 4 - - 0.0
21/12:30am 23.3 26.1 20.4 84 1.9 SSE 6 7 3 4 - - 0.0
21/12:00am 23.3 27.1 20.2 83 2.0 CALM 0 0 0 0 - - 0.0
 
Date/Time
EST
Temp
°C
App
Temp
°C
Dew
Point
°C
Rel
Hum
%
Delta-T
°C
Wind Press
QNH
hPa
Press
MSL
hPa
Rain since
9am
mm
Dir  Spd
km/h
Gust
km/h
Spd
kts
Gust
kts
20/11:30pm 23.5 27.4 20.4 83 2.0 CALM 0 0 0 0 - - 0.0
20/11:00pm 23.3 26.0 20.2 83 2.0 S 6 7 3 4 - - 0.0
20/10:30pm 23.8 27.8 20.5 82 2.1 CALM 0 0 0 0 - - 0.0
20/10:00pm 24.0 27.1 20.3 80 2.4 SE 4 9 2 5 - - 0.0
20/09:30pm 24.2 26.9 20.3 79 2.5 S 6 9 3 5 - - 0.0
20/09:00pm 24.2 26.6 19.7 76 2.9 S 6 9 3 5 - - 0.0
20/08:30pm 25.1 27.2 20.1 74 3.2 SSE 9 11 5 6 - - 0.0
20/08:00pm 25.3 28.2 21.0 77 2.8 SSE 7 11 4 6 - - 0.0
20/07:30pm 25.3 27.3 20.8 76 3.0 ESE 11 15 6 8 - - 0.0
20/07:00pm 25.5 27.4 20.5 74 3.3 ESE 11 17 6 9 - - 0.0
20/06:30pm 25.9 26.9 20.2 71 3.7 ESE 15 22 8 12 - - 0.0
20/06:00pm 26.3 27.3 20.2 69 4.0 ESE 15 24 8 13 - - 0.0
20/05:30pm 26.8 27.0 19.4 64 4.8 ESE 17 24 9 13 - - 0.0
20/05:00pm 28.0 28.0 19.8 61 5.3 ESE 19 28 10 15 - - 0.0
20/04:30pm 27.8 27.5 19.1 59 5.6 ESE 19 30 10 16 - - 0.0
20/04:00pm 28.2 28.4 19.4 59 5.7 E 17 28 9 15 - - 0.0
20/03:30pm 28.6 28.3 19.5 58 5.9 ESE 20 32 11 17 - - 0.0

Other Formats:

Comma delimited format used in spreadsheet applications
http://www.bom.gov.au/fwo/IDQ60801/IDQ60801.94288.axf

JavaScript Object Notation format (JSON) in row-major order
http://www.bom.gov.au/fwo/IDQ60801/IDQ60801.94288.json